sensor_id;sensor_type;location;lat;lon;timestamp;P1;durP1;ratioP1;P2;durP2;ratioP2
8881;SDS011;4477;48.736;9.176;2023-11-21T00:00:57;5.90;;;3.03;;
8881;SDS011;4477;48.736;9.176;2023-11-21T00:03:26;10.03;;;3.40;;
8881;SDS011;4477;48.736;9.176;2023-11-21T00:05:53;8.27;;;3.07;;
8881;SDS011;4477;48.736;9.176;2023-11-21T00:08:21;8.37;;;3.37;;
8881;SDS011;4477;48.736;9.176;2023-11-21T00:10:48;7.63;;;3.23;;
8881;SDS011;4477;48.736;9.176;2023-11-21T00:13:16;11.10;;;3.40;;
8881;SDS011;4477;48.736;9.176;2023-11-21T00:15:43;9.90;;;3.20;;
8881;SDS011;4477;48.736;9.176;2023-11-21T00:18:09;6.80;;;2.87;;
8881;SDS011;4477;48.736;9.176;2023-11-21T00:20:36;7.50;;;3.23;;
8881;SDS011;4477;48.736;9.176;2023-11-21T00:23:03;9.07;;;3.30;;
8881;SDS011;4477;48.736;9.176;2023-11-21T00:25:31;6.50;;;3.07;;
8881;SDS011;4477;48.736;9.176;2023-11-21T00:27:58;9.60;;;3.40;;
8881;SDS011;4477;48.736;9.176;2023-11-21T00:30:26;10.33;;;3.50;;
8881;SDS011;4477;48.736;9.176;2023-11-21T00:32:54;8.67;;;3.40;;
8881;SDS011;4477;48.736;9.176;2023-11-21T00:35:20;6.00;;;3.27;;
8881;SDS011;4477;48.736;9.176;2023-11-21T00:37:47;8.40;;;2.90;;
8881;SDS011;4477;48.736;9.176;2023-11-21T00:40:14;11.17;;;3.63;;
8881;SDS011;4477;48.736;9.176;2023-11-21T00:42:45;5.73;;;2.90;;
8881;SDS011;4477;48.736;9.176;2023-11-21T00:45:12;10.07;;;3.13;;
8881;SDS011;4477;48.736;9.176;2023-11-21T00:47:39;6.90;;;2.70;;
8881;SDS011;4477;48.736;9.176;2023-11-21T00:50:06;6.60;;;2.73;;
8881;SDS011;4477;48.736;9.176;2023-11-21T00:52:34;5.13;;;2.80;;
8881;SDS011;4477;48.736;9.176;2023-11-21T00:55:01;6.23;;;2.63;;
8881;SDS011;4477;48.736;9.176;2023-11-21T00:57:28;5.10;;;2.50;;
8881;SDS011;4477;48.736;9.176;2023-11-21T00:59:56;7.27;;;2.80;;
8881;SDS011;4477;48.736;9.176;2023-11-21T01:02:23;12.53;;;2.20;;
8881;SDS011;4477;48.736;9.176;2023-11-21T01:04:50;5.80;;;2.50;;
8881;SDS011;4477;48.736;9.176;2023-11-21T01:07:17;11.53;;;2.83;;
8881;SDS011;4477;48.736;9.176;2023-11-21T01:09:45;8.17;;;2.77;;
8881;SDS011;4477;48.736;9.176;2023-11-21T01:12:12;4.87;;;2.70;;
8881;SDS011;4477;48.736;9.176;2023-11-21T01:14:39;7.43;;;2.90;;
8881;SDS011;4477;48.736;9.176;2023-11-21T01:17:07;6.30;;;2.63;;
8881;SDS011;4477;48.736;9.176;2023-11-21T01:19:34;7.17;;;2.60;;
8881;SDS011;4477;48.736;9.176;2023-11-21T01:22:01;11.53;;;2.37;;
8881;SDS011;4477;48.736;9.176;2023-11-21T01:24:28;4.77;;;2.27;;
8881;SDS011;4477;48.736;9.176;2023-11-21T01:26:55;6.93;;;2.50;;
8881;SDS011;4477;48.736;9.176;2023-11-21T01:29:22;5.37;;;2.30;;
8881;SDS011;4477;48.736;9.176;2023-11-21T01:31:49;7.00;;;2.27;;
8881;SDS011;4477;48.736;9.176;2023-11-21T01:34:18;4.87;;;2.30;;
8881;SDS011;4477;48.736;9.176;2023-11-21T01:36:45;6.07;;;2.43;;
8881;SDS011;4477;48.736;9.176;2023-11-21T01:39:13;6.60;;;2.40;;
8881;SDS011;4477;48.736;9.176;2023-11-21T01:41:41;9.17;;;2.70;;
8881;SDS011;4477;48.736;9.176;2023-11-21T01:44:09;5.97;;;2.40;;
8881;SDS011;4477;48.736;9.176;2023-11-21T01:46:36;7.80;;;2.50;;
8881;SDS011;4477;48.736;9.176;2023-11-21T01:49:03;3.20;;;1.90;;
8881;SDS011;4477;48.736;9.176;2023-11-21T01:51:32;4.17;;;2.07;;
8881;SDS011;4477;48.736;9.176;2023-11-21T01:54:00;6.70;;;2.00;;
8881;SDS011;4477;48.736;9.176;2023-11-21T01:56:28;7.50;;;2.20;;
8881;SDS011;4477;48.736;9.176;2023-11-21T01:58:56;2.57;;;2.23;;
8881;SDS011;4477;48.736;9.176;2023-11-21T02:01:23;4.67;;;2.00;;
8881;SDS011;4477;48.736;9.176;2023-11-21T02:03:50;6.83;;;1.93;;
8881;SDS011;4477;48.736;9.176;2023-11-21T02:06:17;4.87;;;2.23;;
8881;SDS011;4477;48.736;9.176;2023-11-21T02:08:46;3.83;;;1.90;;
8881;SDS011;4477;48.736;9.176;2023-11-21T02:11:14;4.40;;;1.93;;
8881;SDS011;4477;48.736;9.176;2023-11-21T02:13:41;4.70;;;1.70;;
8881;SDS011;4477;48.736;9.176;2023-11-21T02:16:08;5.43;;;2.10;;
8881;SDS011;4477;48.736;9.176;2023-11-21T02:18:37;3.17;;;1.80;;
8881;SDS011;4477;48.736;9.176;2023-11-21T02:21:04;7.03;;;1.70;;
8881;SDS011;4477;48.736;9.176;2023-11-21T02:23:32;3.33;;;1.90;;
8881;SDS011;4477;48.736;9.176;2023-11-21T02:25:59;3.43;;;2.00;;
8881;SDS011;4477;48.736;9.176;2023-11-21T02:28:29;6.77;;;1.93;;
8881;SDS011;4477;48.736;9.176;2023-11-21T02:30:56;2.03;;;1.50;;
8881;SDS011;4477;48.736;9.176;2023-11-21T02:33:24;5.17;;;1.70;;
8881;SDS011;4477;48.736;9.176;2023-11-21T02:35:51;3.97;;;1.60;;
8881;SDS011;4477;48.736;9.176;2023-11-21T02:38:19;2.77;;;1.67;;
8881;SDS011;4477;48.736;9.176;2023-11-21T02:40:48;3.03;;;1.60;;
8881;SDS011;4477;48.736;9.176;2023-11-21T02:43:15;2.70;;;1.90;;
8881;SDS011;4477;48.736;9.176;2023-11-21T02:45:42;5.80;;;1.60;;
8881;SDS011;4477;48.736;9.176;2023-11-21T02:48:09;3.97;;;1.70;;
8881;SDS011;4477;48.736;9.176;2023-11-21T02:50:35;2.80;;;1.50;;
8881;SDS011;4477;48.736;9.176;2023-11-21T02:53:02;2.23;;;1.53;;
8881;SDS011;4477;48.736;9.176;2023-11-21T02:55:30;4.33;;;1.87;;
8881;SDS011;4477;48.736;9.176;2023-11-21T02:58:01;2.67;;;1.53;;
8881;SDS011;4477;48.736;9.176;2023-11-21T03:00:28;3.43;;;1.43;;
8881;SDS011;4477;48.736;9.176;2023-11-21T03:02:55;5.97;;;1.77;;
8881;SDS011;4477;48.736;9.176;2023-11-21T03:05:23;5.60;;;1.43;;
8881;SDS011;4477;48.736;9.176;2023-11-21T03:07:50;3.27;;;1.67;;
8881;SDS011;4477;48.736;9.176;2023-11-21T03:10:16;2.53;;;1.67;;
8881;SDS011;4477;48.736;9.176;2023-11-21T03:12:44;3.10;;;1.50;;
8881;SDS011;4477;48.736;9.176;2023-11-21T03:15:12;2.83;;;1.43;;
8881;SDS011;4477;48.736;9.176;2023-11-21T03:17:39;4.70;;;1.80;;
8881;SDS011;4477;48.736;9.176;2023-11-21T03:20:07;2.30;;;1.37;;
8881;SDS011;4477;48.736;9.176;2023-11-21T03:22:36;5.77;;;1.60;;
8881;SDS011;4477;48.736;9.176;2023-11-21T03:25:03;4.23;;;1.33;;
8881;SDS011;4477;48.736;9.176;2023-11-21T03:27:30;2.33;;;1.47;;
8881;SDS011;4477;48.736;9.176;2023-11-21T03:29:57;3.43;;;1.70;;
8881;SDS011;4477;48.736;9.176;2023-11-21T03:32:26;2.30;;;1.43;;
8881;SDS011;4477;48.736;9.176;2023-11-21T03:34:53;3.67;;;1.33;;
8881;SDS011;4477;48.736;9.176;2023-11-21T03:37:22;2.83;;;1.53;;
8881;SDS011;4477;48.736;9.176;2023-11-21T03:39:48;1.60;;;1.03;;
8881;SDS011;4477;48.736;9.176;2023-11-21T03:42:15;3.90;;;1.40;;
8881;SDS011;4477;48.736;9.176;2023-11-21T03:44:42;1.77;;;1.20;;
8881;SDS011;4477;48.736;9.176;2023-11-21T03:47:09;4.80;;;1.30;;
8881;SDS011;4477;48.736;9.176;2023-11-21T03:49:37;3.00;;;1.40;;
8881;SDS011;4477;48.736;9.176;2023-11-21T03:52:04;4.00;;;1.40;;
8881;SDS011;4477;48.736;9.176;2023-11-21T03:54:32;2.03;;;1.23;;
8881;SDS011;4477;48.736;9.176;2023-11-21T03:56:59;2.37;;;1.20;;
8881;SDS011;4477;48.736;9.176;2023-11-21T03:59:26;1.70;;;1.00;;
8881;SDS011;4477;48.736;9.176;2023-11-21T04:01:54;5.53;;;1.20;;
8881;SDS011;4477;48.736;9.176;2023-11-21T04:04:22;4.40;;;1.47;;
8881;SDS011;4477;48.736;9.176;2023-11-21T04:06:50;2.63;;;1.13;;
8881;SDS011;4477;48.736;9.176;2023-11-21T04:09:17;5.43;;;1.23;;
8881;SDS011;4477;48.736;9.176;2023-11-21T04:11:44;2.90;;;1.33;;
8881;SDS011;4477;48.736;9.176;2023-11-21T04:14:11;4.17;;;1.30;;
8881;SDS011;4477;48.736;9.176;2023-11-21T04:16:38;2.63;;;0.90;;
8881;SDS011;4477;48.736;9.176;2023-11-21T04:19:06;2.03;;;1.00;;
8881;SDS011;4477;48.736;9.176;2023-11-21T04:21:34;1.70;;;1.10;;
8881;SDS011;4477;48.736;9.176;2023-11-21T04:24:02;1.77;;;1.20;;
8881;SDS011;4477;48.736;9.176;2023-11-21T04:26:29;2.67;;;1.30;;
8881;SDS011;4477;48.736;9.176;2023-11-21T04:28:56;2.27;;;1.00;;
8881;SDS011;4477;48.736;9.176;2023-11-21T04:31:23;1.93;;;1.20;;
8881;SDS011;4477;48.736;9.176;2023-11-21T04:33:50;3.63;;;1.10;;
8881;SDS011;4477;48.736;9.176;2023-11-21T04:36:17;1.10;;;1.00;;
8881;SDS011;4477;48.736;9.176;2023-11-21T04:38:44;3.23;;;1.43;;
8881;SDS011;4477;48.736;9.176;2023-11-21T04:41:12;2.37;;;1.20;;
8881;SDS011;4477;48.736;9.176;2023-11-21T04:43:39;2.57;;;1.13;;
8881;SDS011;4477;48.736;9.176;2023-11-21T04:46:07;2.03;;;1.30;;
8881;SDS011;4477;48.736;9.176;2023-11-21T04:48:34;2.90;;;1.10;;
8881;SDS011;4477;48.736;9.176;2023-11-21T04:51:01;1.90;;;1.00;;
8881;SDS011;4477;48.736;9.176;2023-11-21T04:53:29;1.60;;;1.10;;
8881;SDS011;4477;48.736;9.176;2023-11-21T04:55:56;2.60;;;1.30;;
8881;SDS011;4477;48.736;9.176;2023-11-21T04:58:24;3.00;;;0.87;;
8881;SDS011;4477;48.736;9.176;2023-11-21T05:00:51;2.23;;;0.93;;
8881;SDS011;4477;48.736;9.176;2023-11-21T05:03:17;4.27;;;1.10;;
8881;SDS011;4477;48.736;9.176;2023-11-21T05:05:44;3.87;;;1.10;;
8881;SDS011;4477;48.736;9.176;2023-11-21T05:08:11;2.47;;;1.40;;
8881;SDS011;4477;48.736;9.176;2023-11-21T05:10:38;2.03;;;1.20;;
8881;SDS011;4477;48.736;9.176;2023-11-21T05:13:05;4.33;;;1.47;;
8881;SDS011;4477;48.736;9.176;2023-11-21T05:15:36;1.73;;;1.00;;
8881;SDS011;4477;48.736;9.176;2023-11-21T05:18:03;2.10;;;1.07;;
8881;SDS011;4477;48.736;9.176;2023-11-21T05:20:30;1.27;;;1.03;;
8881;SDS011;4477;48.736;9.176;2023-11-21T05:22:58;3.03;;;1.03;;
8881;SDS011;4477;48.736;9.176;2023-11-21T05:25:25;1.87;;;1.10;;
8881;SDS011;4477;48.736;9.176;2023-11-21T05:27:51;1.13;;;0.87;;
8881;SDS011;4477;48.736;9.176;2023-11-21T05:30:19;3.33;;;0.90;;
8881;SDS011;4477;48.736;9.176;2023-11-21T05:32:48;5.20;;;1.17;;
8881;SDS011;4477;48.736;9.176;2023-11-21T05:35:15;1.57;;;1.07;;
8881;SDS011;4477;48.736;9.176;2023-11-21T05:37:42;2.67;;;1.00;;
8881;SDS011;4477;48.736;9.176;2023-11-21T05:40:10;2.37;;;1.10;;
8881;SDS011;4477;48.736;9.176;2023-11-21T05:42:38;3.53;;;1.00;;
8881;SDS011;4477;48.736;9.176;2023-11-21T05:45:06;1.60;;;1.10;;
8881;SDS011;4477;48.736;9.176;2023-11-21T05:47:36;1.10;;;0.83;;
8881;SDS011;4477;48.736;9.176;2023-11-21T05:50:06;2.77;;;1.20;;
8881;SDS011;4477;48.736;9.176;2023-11-21T05:52:37;1.10;;;0.90;;
8881;SDS011;4477;48.736;9.176;2023-11-21T05:55:04;1.17;;;1.03;;
8881;SDS011;4477;48.736;9.176;2023-11-21T05:57:32;4.23;;;1.17;;
8881;SDS011;4477;48.736;9.176;2023-11-21T06:00:01;1.43;;;1.20;;
8881;SDS011;4477;48.736;9.176;2023-11-21T06:02:36;3.50;;;1.40;;
8881;SDS011;4477;48.736;9.176;2023-11-21T06:05:03;1.60;;;1.30;;
8881;SDS011;4477;48.736;9.176;2023-11-21T06:07:31;1.87;;;1.40;;
8881;SDS011;4477;48.736;9.176;2023-11-21T06:09:58;1.77;;;1.40;;
8881;SDS011;4477;48.736;9.176;2023-11-21T06:12:27;2.30;;;1.60;;
8881;SDS011;4477;48.736;9.176;2023-11-21T06:14:54;2.20;;;1.70;;
8881;SDS011;4477;48.736;9.176;2023-11-21T06:17:21;3.30;;;1.97;;
8881;SDS011;4477;48.736;9.176;2023-11-21T06:19:49;4.73;;;2.00;;
8881;SDS011;4477;48.736;9.176;2023-11-21T06:22:17;3.63;;;1.60;;
8881;SDS011;4477;48.736;9.176;2023-11-21T06:24:46;3.33;;;2.17;;
8881;SDS011;4477;48.736;9.176;2023-11-21T06:27:12;2.70;;;2.03;;
8881;SDS011;4477;48.736;9.176;2023-11-21T06:29:39;4.07;;;2.07;;
8881;SDS011;4477;48.736;9.176;2023-11-21T06:32:07;2.63;;;1.80;;
8881;SDS011;4477;48.736;9.176;2023-11-21T06:34:34;3.07;;;2.33;;
8881;SDS011;4477;48.736;9.176;2023-11-21T06:37:01;3.87;;;2.20;;
8881;SDS011;4477;48.736;9.176;2023-11-21T06:39:27;4.13;;;2.20;;
8881;SDS011;4477;48.736;9.176;2023-11-21T06:41:55;4.87;;;2.30;;
8881;SDS011;4477;48.736;9.176;2023-11-21T06:44:24;3.27;;;2.30;;
8881;SDS011;4477;48.736;9.176;2023-11-21T06:46:51;3.40;;;2.10;;
8881;SDS011;4477;48.736;9.176;2023-11-21T06:49:18;3.27;;;2.23;;
8881;SDS011;4477;48.736;9.176;2023-11-21T06:51:45;6.70;;;2.40;;
8881;SDS011;4477;48.736;9.176;2023-11-21T06:54:12;4.20;;;2.90;;
8881;SDS011;4477;48.736;9.176;2023-11-21T06:56:39;3.40;;;2.23;;
8881;SDS011;4477;48.736;9.176;2023-11-21T06:59:07;4.70;;;2.70;;
8881;SDS011;4477;48.736;9.176;2023-11-21T07:01:35;3.30;;;2.70;;
8881;SDS011;4477;48.736;9.176;2023-11-21T07:04:04;3.70;;;2.67;;
8881;SDS011;4477;48.736;9.176;2023-11-21T07:06:31;3.93;;;2.73;;
8881;SDS011;4477;48.736;9.176;2023-11-21T07:08:58;3.50;;;2.70;;
8881;SDS011;4477;48.736;9.176;2023-11-21T07:11:26;3.13;;;2.60;;
8881;SDS011;4477;48.736;9.176;2023-11-21T07:13:53;6.07;;;2.77;;
8881;SDS011;4477;48.736;9.176;2023-11-21T07:16:21;4.67;;;2.77;;
8881;SDS011;4477;48.736;9.176;2023-11-21T07:18:48;2.87;;;2.60;;
8881;SDS011;4477;48.736;9.176;2023-11-21T07:21:15;3.67;;;2.93;;
8881;SDS011;4477;48.736;9.176;2023-11-21T07:23:42;4.50;;;2.60;;
8881;SDS011;4477;48.736;9.176;2023-11-21T07:26:09;3.70;;;2.90;;
8881;SDS011;4477;48.736;9.176;2023-11-21T07:28:36;4.30;;;2.80;;
8881;SDS011;4477;48.736;9.176;2023-11-21T07:31:03;3.00;;;2.70;;
8881;SDS011;4477;48.736;9.176;2023-11-21T07:33:31;5.63;;;3.00;;
8881;SDS011;4477;48.736;9.176;2023-11-21T07:35:58;4.63;;;3.07;;
8881;SDS011;4477;48.736;9.176;2023-11-21T07:38:25;4.00;;;2.73;;
8881;SDS011;4477;48.736;9.176;2023-11-21T07:40:53;6.50;;;3.00;;
8881;SDS011;4477;48.736;9.176;2023-11-21T07:43:20;7.00;;;3.40;;
8881;SDS011;4477;48.736;9.176;2023-11-21T07:45:47;6.93;;;2.97;;
8881;SDS011;4477;48.736;9.176;2023-11-21T07:48:14;6.20;;;3.57;;
8881;SDS011;4477;48.736;9.176;2023-11-21T07:50:42;5.63;;;3.50;;
8881;SDS011;4477;48.736;9.176;2023-11-21T07:53:09;5.83;;;3.63;;
8881;SDS011;4477;48.736;9.176;2023-11-21T07:55:36;3.90;;;3.17;;
8881;SDS011;4477;48.736;9.176;2023-11-21T07:58:03;5.93;;;3.07;;
8881;SDS011;4477;48.736;9.176;2023-11-21T08:00:29;5.30;;;3.07;;
8881;SDS011;4477;48.736;9.176;2023-11-21T08:02:56;8.03;;;3.40;;
8881;SDS011;4477;48.736;9.176;2023-11-21T08:05:23;6.77;;;3.23;;
8881;SDS011;4477;48.736;9.176;2023-11-21T08:07:51;5.27;;;2.87;;
8881;SDS011;4477;48.736;9.176;2023-11-21T08:10:18;5.43;;;2.80;;
8881;SDS011;4477;48.736;9.176;2023-11-21T08:12:46;4.17;;;3.00;;
8881;SDS011;4477;48.736;9.176;2023-11-21T08:15:13;4.17;;;2.83;;
8881;SDS011;4477;48.736;9.176;2023-11-21T08:17:40;5.37;;;3.00;;
8881;SDS011;4477;48.736;9.176;2023-11-21T08:20:07;4.33;;;2.93;;
8881;SDS011;4477;48.736;9.176;2023-11-21T08:22:36;3.70;;;2.90;;
8881;SDS011;4477;48.736;9.176;2023-11-21T08:25:07;3.37;;;3.00;;
8881;SDS011;4477;48.736;9.176;2023-11-21T08:27:34;4.93;;;3.00;;
8881;SDS011;4477;48.736;9.176;2023-11-21T08:30:02;5.07;;;2.93;;
8881;SDS011;4477;48.736;9.176;2023-11-21T08:32:29;3.00;;;2.67;;
8881;SDS011;4477;48.736;9.176;2023-11-21T08:34:57;6.13;;;2.93;;
8881;SDS011;4477;48.736;9.176;2023-11-21T08:37:24;3.27;;;2.50;;
8881;SDS011;4477;48.736;9.176;2023-11-21T08:39:52;3.17;;;2.83;;
8881;SDS011;4477;48.736;9.176;2023-11-21T08:42:20;4.00;;;2.67;;
8881;SDS011;4477;48.736;9.176;2023-11-21T08:44:48;3.37;;;2.77;;
8881;SDS011;4477;48.736;9.176;2023-11-21T08:47:15;2.90;;;2.67;;
8881;SDS011;4477;48.736;9.176;2023-11-21T08:49:42;3.50;;;2.67;;
8881;SDS011;4477;48.736;9.176;2023-11-21T08:52:08;3.07;;;2.57;;
8881;SDS011;4477;48.736;9.176;2023-11-21T08:54:35;5.27;;;2.90;;
8881;SDS011;4477;48.736;9.176;2023-11-21T08:57:02;3.27;;;2.73;;
8881;SDS011;4477;48.736;9.176;2023-11-21T08:59:31;3.83;;;2.53;;
8881;SDS011;4477;48.736;9.176;2023-11-21T09:01:58;2.73;;;2.20;;
8881;SDS011;4477;48.736;9.176;2023-11-21T09:04:25;2.43;;;2.23;;
8881;SDS011;4477;48.736;9.176;2023-11-21T09:06:52;2.80;;;2.30;;
8881;SDS011;4477;48.736;9.176;2023-11-21T09:09:19;2.10;;;1.90;;
8881;SDS011;4477;48.736;9.176;2023-11-21T09:11:46;2.30;;;1.93;;
8881;SDS011;4477;48.736;9.176;2023-11-21T09:14:14;2.57;;;1.63;;
8881;SDS011;4477;48.736;9.176;2023-11-21T09:16:43;2.20;;;1.73;;
8881;SDS011;4477;48.736;9.176;2023-11-21T09:19:10;3.97;;;2.40;;
8881;SDS011;4477;48.736;9.176;2023-11-21T09:21:39;1.60;;;1.50;;
8881;SDS011;4477;48.736;9.176;2023-11-21T09:24:06;1.30;;;1.20;;
8881;SDS011;4477;48.736;9.176;2023-11-21T09:26:34;2.23;;;1.50;;
8881;SDS011;4477;48.736;9.176;2023-11-21T09:29:01;1.33;;;1.10;;
8881;SDS011;4477;48.736;9.176;2023-11-21T09:31:28;1.73;;;1.20;;
8881;SDS011;4477;48.736;9.176;2023-11-21T09:33:57;1.83;;;1.30;;
8881;SDS011;4477;48.736;9.176;2023-11-21T09:36:24;2.17;;;1.03;;
8881;SDS011;4477;48.736;9.176;2023-11-21T09:38:53;3.63;;;1.23;;
8881;SDS011;4477;48.736;9.176;2023-11-21T09:41:21;1.63;;;1.13;;
8881;SDS011;4477;48.736;9.176;2023-11-21T09:44:00;1.33;;;1.00;;
8881;SDS011;4477;48.736;9.176;2023-11-21T09:46:32;2.63;;;1.00;;
8881;SDS011;4477;48.736;9.176;2023-11-21T09:49:01;2.70;;;1.00;;
8881;SDS011;4477;48.736;9.176;2023-11-21T09:51:30;1.93;;;0.70;;
8881;SDS011;4477;48.736;9.176;2023-11-21T09:54:01;1.13;;;0.60;;
8881;SDS011;4477;48.736;9.176;2023-11-21T09:56:32;2.00;;;0.50;;
8881;SDS011;4477;48.736;9.176;2023-11-21T09:58:59;0.80;;;0.50;;
8881;SDS011;4477;48.736;9.176;2023-11-21T10:01:31;0.70;;;0.50;;
8881;SDS011;4477;48.736;9.176;2023-11-21T10:03:59;0.70;;;0.57;;
8881;SDS011;4477;48.736;9.176;2023-11-21T10:06:28;1.40;;;0.63;;
8881;SDS011;4477;48.736;9.176;2023-11-21T10:08:56;0.80;;;0.70;;
8881;SDS011;4477;48.736;9.176;2023-11-21T10:11:24;1.63;;;0.73;;
8881;SDS011;4477;48.736;9.176;2023-11-21T10:13:52;0.70;;;0.70;;
8881;SDS011;4477;48.736;9.176;2023-11-21T10:16:22;2.07;;;1.63;;
8881;SDS011;4477;48.736;9.176;2023-11-21T10:18:53;1.80;;;1.53;;
8881;SDS011;4477;48.736;9.176;2023-11-21T10:21:21;0.97;;;0.90;;
8881;SDS011;4477;48.736;9.176;2023-11-21T10:23:48;1.13;;;0.77;;
8881;SDS011;4477;48.736;9.176;2023-11-21T10:26:18;0.80;;;0.80;;
8881;SDS011;4477;48.736;9.176;2023-11-21T10:28:55;1.63;;;1.40;;
8881;SDS011;4477;48.736;9.176;2023-11-21T10:49:55;1.33;;;1.03;;
8881;SDS011;4477;48.736;9.176;2023-11-21T10:52:22;1.90;;;0.77;;
8881;SDS011;4477;48.736;9.176;2023-11-21T10:54:54;1.27;;;1.17;;
8881;SDS011;4477;48.736;9.176;2023-11-21T10:57:22;0.87;;;0.83;;
8881;SDS011;4477;48.736;9.176;2023-11-21T10:59:49;1.10;;;0.80;;
8881;SDS011;4477;48.736;9.176;2023-11-21T11:02:19;1.10;;;1.00;;
8881;SDS011;4477;48.736;9.176;2023-11-21T11:04:53;1.27;;;0.90;;
8881;SDS011;4477;48.736;9.176;2023-11-21T11:07:24;1.90;;;1.30;;
8881;SDS011;4477;48.736;9.176;2023-11-21T11:09:52;1.27;;;1.03;;
8881;SDS011;4477;48.736;9.176;2023-11-21T11:12:20;1.97;;;1.50;;
8881;SDS011;4477;48.736;9.176;2023-11-21T11:14:47;1.20;;;1.10;;
8881;SDS011;4477;48.736;9.176;2023-11-21T11:17:15;1.70;;;1.20;;
8881;SDS011;4477;48.736;9.176;2023-11-21T11:19:44;2.17;;;1.40;;
8881;SDS011;4477;48.736;9.176;2023-11-21T11:22:16;1.53;;;1.43;;
8881;SDS011;4477;48.736;9.176;2023-11-21T11:24:57;2.00;;;1.80;;
8881;SDS011;4477;48.736;9.176;2023-11-21T11:27:48;1.47;;;1.30;;
8881;SDS011;4477;48.736;9.176;2023-11-21T11:30:23;1.50;;;1.40;;
8881;SDS011;4477;48.736;9.176;2023-11-21T11:33:04;2.13;;;1.70;;
8881;SDS011;4477;48.736;9.176;2023-11-21T11:35:38;1.60;;;1.40;;
8881;SDS011;4477;48.736;9.176;2023-11-21T11:38:14;2.53;;;1.50;;
8881;SDS011;4477;48.736;9.176;2023-11-21T11:40:45;3.10;;;1.60;;
8881;SDS011;4477;48.736;9.176;2023-11-21T11:43:12;2.07;;;1.57;;
8881;SDS011;4477;48.736;9.176;2023-11-21T11:45:40;1.13;;;1.03;;
8881;SDS011;4477;48.736;9.176;2023-11-21T11:48:07;1.30;;;1.20;;
8881;SDS011;4477;48.736;9.176;2023-11-21T11:50:41;2.00;;;1.47;;
8881;SDS011;4477;48.736;9.176;2023-11-21T11:53:32;1.30;;;1.20;;
8881;SDS011;4477;48.736;9.176;2023-11-21T11:56:12;1.47;;;1.37;;
8881;SDS011;4477;48.736;9.176;2023-11-21T11:58:51;1.33;;;1.23;;
8881;SDS011;4477;48.736;9.176;2023-11-21T12:01:18;1.33;;;1.17;;
8881;SDS011;4477;48.736;9.176;2023-11-21T12:03:47;1.40;;;1.27;;
8881;SDS011;4477;48.736;9.176;2023-11-21T12:06:55;1.03;;;1.00;;
8881;SDS011;4477;48.736;9.176;2023-11-21T12:09:25;0.90;;;0.90;;
8881;SDS011;4477;48.736;9.176;2023-11-21T12:11:52;1.40;;;1.30;;
8881;SDS011;4477;48.736;9.176;2023-11-21T12:14:21;1.03;;;1.00;;
8881;SDS011;4477;48.736;9.176;2023-11-21T12:16:48;1.20;;;1.10;;
8881;SDS011;4477;48.736;9.176;2023-11-21T12:19:16;1.40;;;1.27;;
8881;SDS011;4477;48.736;9.176;2023-11-21T12:21:43;0.97;;;0.90;;
8881;SDS011;4477;48.736;9.176;2023-11-21T12:24:10;1.67;;;0.80;;
8881;SDS011;4477;48.736;9.176;2023-11-21T12:26:40;1.07;;;0.97;;
8881;SDS011;4477;48.736;9.176;2023-11-21T12:29:07;2.47;;;1.20;;
8881;SDS011;4477;48.736;9.176;2023-11-21T12:31:35;1.10;;;1.00;;
8881;SDS011;4477;48.736;9.176;2023-11-21T12:34:02;1.73;;;1.10;;
8881;SDS011;4477;48.736;9.176;2023-11-21T12:36:31;1.20;;;1.10;;
8881;SDS011;4477;48.736;9.176;2023-11-21T12:38:59;1.43;;;1.30;;
8881;SDS011;4477;48.736;9.176;2023-11-21T12:41:27;1.57;;;1.47;;
8881;SDS011;4477;48.736;9.176;2023-11-21T12:43:56;1.87;;;1.50;;
8881;SDS011;4477;48.736;9.176;2023-11-21T12:46:24;2.80;;;1.50;;
8881;SDS011;4477;48.736;9.176;2023-11-21T12:48:54;2.00;;;1.80;;
8881;SDS011;4477;48.736;9.176;2023-11-21T12:51:21;2.00;;;1.80;;
8881;SDS011;4477;48.736;9.176;2023-11-21T12:53:48;1.77;;;1.67;;
8881;SDS011;4477;48.736;9.176;2023-11-21T12:56:16;2.27;;;1.70;;
8881;SDS011;4477;48.736;9.176;2023-11-21T12:58:44;2.03;;;1.83;;
8881;SDS011;4477;48.736;9.176;2023-11-21T13:01:13;2.13;;;1.93;;
8881;SDS011;4477;48.736;9.176;2023-11-21T13:03:45;3.00;;;2.30;;
8881;SDS011;4477;48.736;9.176;2023-11-21T13:06:15;3.07;;;2.10;;
8881;SDS011;4477;48.736;9.176;2023-11-21T13:08:44;3.20;;;2.13;;
8881;SDS011;4477;48.736;9.176;2023-11-21T13:11:11;1.40;;;1.20;;
8881;SDS011;4477;48.736;9.176;2023-11-21T13:13:40;1.57;;;1.30;;
8881;SDS011;4477;48.736;9.176;2023-11-21T13:16:08;1.20;;;1.10;;
8881;SDS011;4477;48.736;9.176;2023-11-21T13:18:36;1.70;;;1.60;;
8881;SDS011;4477;48.736;9.176;2023-11-21T13:21:05;1.53;;;1.43;;
8881;SDS011;4477;48.736;9.176;2023-11-21T13:23:36;1.30;;;1.20;;
8881;SDS011;4477;48.736;9.176;2023-11-21T13:26:03;1.30;;;1.20;;
8881;SDS011;4477;48.736;9.176;2023-11-21T13:28:30;2.60;;;1.30;;
8881;SDS011;4477;48.736;9.176;2023-11-21T13:30:58;1.93;;;1.40;;
8881;SDS011;4477;48.736;9.176;2023-11-21T13:33:28;1.70;;;1.60;;
8881;SDS011;4477;48.736;9.176;2023-11-21T13:35:56;0.93;;;0.83;;
8881;SDS011;4477;48.736;9.176;2023-11-21T13:38:24;0.80;;;0.80;;
8881;SDS011;4477;48.736;9.176;2023-11-21T13:40:57;3.00;;;0.70;;
8881;SDS011;4477;48.736;9.176;2023-11-21T13:43:26;2.07;;;0.77;;
8881;SDS011;4477;48.736;9.176;2023-11-21T13:45:54;0.87;;;0.80;;
8881;SDS011;4477;48.736;9.176;2023-11-21T13:48:26;0.73;;;0.60;;
8881;SDS011;4477;48.736;9.176;2023-11-21T13:51:07;2.40;;;0.87;;
8881;SDS011;4477;48.736;9.176;2023-11-21T13:53:40;1.53;;;0.63;;
8881;SDS011;4477;48.736;9.176;2023-11-21T13:56:08;0.90;;;0.80;;
8881;SDS011;4477;48.736;9.176;2023-11-21T13:58:35;2.20;;;0.83;;
8881;SDS011;4477;48.736;9.176;2023-11-21T14:01:09;1.20;;;1.00;;
8881;SDS011;4477;48.736;9.176;2023-11-21T14:03:50;1.90;;;1.00;;
8881;SDS011;4477;48.736;9.176;2023-11-21T14:06:24;1.70;;;1.40;;
8881;SDS011;4477;48.736;9.176;2023-11-21T14:08:59;2.27;;;1.80;;
8881;SDS011;4477;48.736;9.176;2023-11-21T14:11:30;1.90;;;1.60;;
8881;SDS011;4477;48.736;9.176;2023-11-21T14:13:57;3.00;;;2.60;;
8881;SDS011;4477;48.736;9.176;2023-11-21T14:16:24;3.27;;;2.97;;
8881;SDS011;4477;48.736;9.176;2023-11-21T14:18:51;3.80;;;3.07;;
8881;SDS011;4477;48.736;9.176;2023-11-21T14:21:25;3.80;;;3.50;;
8881;SDS011;4477;48.736;9.176;2023-11-21T14:23:52;4.00;;;3.60;;
8881;SDS011;4477;48.736;9.176;2023-11-21T14:26:20;5.60;;;4.17;;
8881;SDS011;4477;48.736;9.176;2023-11-21T14:28:48;4.03;;;3.47;;
8881;SDS011;4477;48.736;9.176;2023-11-21T14:31:16;5.07;;;4.13;;
8881;SDS011;4477;48.736;9.176;2023-11-21T14:33:43;4.40;;;4.00;;
8881;SDS011;4477;48.736;9.176;2023-11-21T14:36:10;5.03;;;4.43;;
8881;SDS011;4477;48.736;9.176;2023-11-21T14:38:39;4.97;;;4.47;;
8881;SDS011;4477;48.736;9.176;2023-11-21T14:41:06;5.30;;;4.40;;
8881;SDS011;4477;48.736;9.176;2023-11-21T14:43:33;5.57;;;4.73;;
8881;SDS011;4477;48.736;9.176;2023-11-21T14:46:00;6.63;;;4.90;;
8881;SDS011;4477;48.736;9.176;2023-11-21T14:48:28;5.50;;;5.00;;
8881;SDS011;4477;48.736;9.176;2023-11-21T14:51:07;6.63;;;4.83;;
8881;SDS011;4477;48.736;9.176;2023-11-21T14:53:49;5.07;;;4.00;;
8881;SDS011;4477;48.736;9.176;2023-11-21T14:56:19;6.53;;;4.27;;
8881;SDS011;4477;48.736;9.176;2023-11-21T14:58:51;5.73;;;3.87;;
8881;SDS011;4477;48.736;9.176;2023-11-21T15:01:19;4.40;;;4.00;;
8881;SDS011;4477;48.736;9.176;2023-11-21T15:03:58;5.27;;;3.90;;
8881;SDS011;4477;48.736;9.176;2023-11-21T15:06:25;4.27;;;3.67;;
8881;SDS011;4477;48.736;9.176;2023-11-21T15:08:56;5.27;;;3.80;;
8881;SDS011;4477;48.736;9.176;2023-11-21T15:11:46;4.20;;;3.80;;
8881;SDS011;4477;48.736;9.176;2023-11-21T15:14:13;6.00;;;3.90;;
8881;SDS011;4477;48.736;9.176;2023-11-21T15:16:45;4.70;;;3.70;;
8881;SDS011;4477;48.736;9.176;2023-11-21T15:19:16;4.23;;;3.83;;
8881;SDS011;4477;48.736;9.176;2023-11-21T15:21:49;6.03;;;4.00;;
8881;SDS011;4477;48.736;9.176;2023-11-21T15:24:18;7.17;;;4.13;;
8881;SDS011;4477;48.736;9.176;2023-11-21T15:26:44;5.77;;;4.37;;
8881;SDS011;4477;48.736;9.176;2023-11-21T15:29:11;4.63;;;4.10;;
8881;SDS011;4477;48.736;9.176;2023-11-21T15:31:39;6.17;;;4.37;;
8881;SDS011;4477;48.736;9.176;2023-11-21T15:34:11;5.43;;;4.43;;
8881;SDS011;4477;48.736;9.176;2023-11-21T15:36:37;5.40;;;4.50;;
8881;SDS011;4477;48.736;9.176;2023-11-21T15:39:04;8.23;;;5.80;;
8881;SDS011;4477;48.736;9.176;2023-11-21T15:41:33;7.40;;;5.70;;